Time;durP1;ratioP1;P1;durP2;ratioP2;P2;SDS_P1;SDS_P2;PMS_P1;PMS_P2;Temp;Humidity;BMP_temperature;BMP_pressure;BME280_temperature;BME280_humidity;BME280_pressure;Samples;Min_cycle;Max_cycle;Signal;HPM_P1;HPM_P2
2024/01/04 00:00:00;;;;;;;12.95;6.57;;;;;;;9.23;100.00;96694.28;5078168;28;20076;-83
2024/01/04 00:02:30;;;;;;;26.23;12.05;;;;;;;9.16;100.00;96712.56;5075163;28;20492;-82
2024/01/04 00:05:05;;;;;;;20.00;9.43;;;;;;;9.15;100.00;96689.50;5094999;28;20118;-84
2024/01/04 00:07:30;;;;;;;13.52;6.78;;;;;;;9.16;100.00;96685.91;5091883;28;20043;-84
2024/01/04 00:12:41;;;;;;;10.93;5.22;;;;;;;9.54;100.00;96695.63;5097973;28;20062;-82
2024/01/04 00:15:07;;;;;;;8.60;4.40;;;;;;;9.60;100.00;96692.53;5090823;28;20028;-82
2024/01/04 00:17:33;;;;;;;7.95;4.25;;;;;;;9.65;100.00;96698.41;5077970;28;20032;-85
2024/01/04 00:19:58;;;;;;;6.97;3.53;;;;;;;9.63;100.00;96692.31;5091416;28;20028;-83
2024/01/04 00:22:24;;;;;;;8.70;2.92;;;;;;;9.58;100.00;96697.13;5076633;28;20028;-83
2024/01/04 00:24:50;;;;;;;8.13;3.25;;;;;;;9.59;100.00;96705.06;5094555;28;20032;-83
2024/01/04 00:27:16;;;;;;;7.55;3.60;;;;;;;9.54;100.00;96707.19;5094830;28;20039;-84
2024/01/04 00:29:45;;;;;;;7.40;3.80;;;;;;;9.56;100.00;96709.75;5083433;28;20032;-82
2024/01/04 00:32:10;;;;;;;7.03;3.50;;;;;;;9.45;100.00;96702.50;5074514;28;20028;-83
2024/01/04 00:34:36;;;;;;;9.27;4.30;;;;;;;9.46;100.00;96722.03;5074100;28;20092;-82
2024/01/04 00:37:03;;;;;;;10.50;4.70;;;;;;;9.32;100.00;96725.66;5103126;28;20042;-83
2024/01/04 00:39:29;;;;;;;7.43;3.60;;;;;;;9.22;100.00;96717.47;5072614;28;20142;-82
2024/01/04 00:41:56;;;;;;;10.30;4.05;;;;;;;9.07;100.00;96697.22;5073925;28;20120;-83
2024/01/04 00:44:21;;;;;;;7.72;3.70;;;;;;;9.12;100.00;96703.06;5077449;28;20061;-83
2024/01/04 00:46:47;;;;;;;10.63;4.70;;;;;;;9.02;100.00;96709.13;5094233;28;20015;-83
2024/01/04 00:49:13;;;;;;;9.18;3.47;;;;;;;9.07;100.00;96713.22;5094215;28;20028;-84
2024/01/04 00:51:38;;;;;;;7.35;2.15;;;;;;;9.20;100.00;96714.03;5090656;28;20514;-83
2024/01/04 00:54:04;;;;;;;5.55;2.60;;;;;;;9.36;100.00;96715.63;5073718;28;20458;-82
2024/01/04 00:56:34;;;;;;;5.32;2.45;;;;;;;9.40;100.00;96720.66;5076600;28;20123;-83
2024/01/04 00:59:00;;;;;;;5.00;2.17;;;;;;;9.49;100.00;96712.00;5073490;28;20020;-83
2024/01/04 01:01:26;;;;;;;6.60;2.60;;;;;;;9.65;100.00;96719.78;5076698;28;20086;-83
2024/01/04 01:03:52;;;;;;;4.80;2.28;;;;;;;9.73;100.00;96715.59;5073593;28;20028;-82
2024/01/04 01:06:17;;;;;;;10.52;3.65;;;;;;;9.87;100.00;96714.59;5073716;28;20480;-82
2024/01/04 01:08:43;;;;;;;7.68;3.58;;;;;;;9.90;100.00;96722.41;5076523;28;20080;-83
2024/01/04 01:11:08;;;;;;;13.93;3.60;;;;;;;9.75;100.00;96726.16;5093505;28;20035;-83
2024/01/04 01:13:34;;;;;;;5.53;2.38;;;;;;;9.70;100.00;96728.28;5091115;28;20024;-83
2024/01/04 01:16:00;;;;;;;5.43;2.55;;;;;;;9.55;100.00;96724.06;5102279;28;20107;-84
2024/01/04 01:18:26;;;;;;;3.33;2.17;;;;;;;9.36;100.00;96724.50;5077318;28;20405;-83
2024/01/04 01:20:53;;;;;;;7.68;2.10;;;;;;;9.27;100.00;96722.47;5074495;28;20043;-83
2024/01/04 01:23:19;;;;;;;4.45;2.63;;;;;;;9.22;100.00;96725.47;5073401;28;20024;-83
2024/01/04 01:25:44;;;;;;;4.82;2.20;;;;;;;9.27;100.00;96736.69;5073458;28;20506;-83
2024/01/04 01:28:10;;;;;;;5.03;2.40;;;;;;;9.25;100.00;96745.75;5076816;28;20055;-82
2024/01/04 01:30:35;;;;;;;8.57;2.50;;;;;;;9.31;100.00;96752.47;5093709;28;20031;-82
2024/01/04 01:33:01;;;;;;;2.95;1.98;;;;;;;9.19;100.00;96736.38;5092438;28;20032;-82
2024/01/04 01:35:27;;;;;;;3.17;1.70;;;;;;;9.11;100.00;96746.69;5090321;28;20123;-82
2024/01/04 01:37:52;;;;;;;4.90;2.42;;;;;;;9.05;100.00;96748.94;5075331;28;20043;-83
2024/01/04 01:40:18;;;;;;;15.00;4.95;;;;;;;8.97;100.00;96741.47;5076516;28;20144;-83
2024/01/04 01:42:50;;;;;;;16.17;5.05;;;;;;;8.85;100.00;96752.97;5089989;28;20550;-82
2024/01/04 01:45:17;;;;;;;12.88;4.13;;;;;;;8.78;100.00;96754.34;5070115;28;20024;-83
2024/01/04 01:47:45;;;;;;;11.63;4.70;;;;;;;8.67;100.00;96751.56;5085094;28;20097;-84
2024/01/04 01:50:11;;;;;;;15.05;6.05;;;;;;;8.64;100.00;96749.09;5092984;28;20023;-83
2024/01/04 01:52:36;;;;;;;13.70;5.22;;;;;;;8.59;100.00;96751.19;5090808;28;20421;-84
2024/01/04 01:55:06;;;;;;;9.80;3.70;;;;;;;8.57;100.00;96747.78;5093122;28;20038;-84
2024/01/04 01:57:33;;;;;;;3.15;1.88;;;;;;;8.63;100.00;96737.56;5073277;28;20043;-83
2024/01/04 02:00:02;;;;;;;13.63;4.35;;;;;;;8.65;100.00;96737.44;5073184;28;20398;-84
2024/01/04 02:02:28;;;;;;;12.90;5.57;;;;;;;8.59;100.00;96740.53;5093470;28;20454;-83
2024/01/04 02:04:54;;;;;;;19.45;9.88;;;;;;;8.49;100.00;96744.78;5093064;28;20118;-81
2024/01/04 02:07:20;;;;;;;17.40;8.20;;;;;;;8.42;100.00;96743.47;5076535;28;20064;-82
2024/01/04 02:09:45;;;;;;;7.90;3.60;;;;;;;8.31;100.00;96740.66;5089866;28;20028;-83
2024/01/04 02:12:13;;;;;;;8.35;3.35;;;;;;;8.34;100.00;96746.63;5076283;28;20024;-83
2024/01/04 02:14:39;;;;;;;4.65;2.97;;;;;;;8.27;100.00;96732.00;5093272;28;20423;-83
2024/01/04 02:17:05;;;;;;;5.20;2.45;;;;;;;8.22;100.00;96749.22;5074178;28;20024;-83
2024/01/04 02:19:31;;;;;;;6.55;3.00;;;;;;;8.22;100.00;96746.53;5072759;28;20140;-84
2024/01/04 02:21:56;;;;;;;6.53;3.13;;;;;;;8.22;100.00;96738.56;5072683;28;20474;-82
2024/01/04 02:24:22;;;;;;;6.85;3.40;;;;;;;8.26;100.00;96729.41;5092945;28;20510;-83
2024/01/04 02:26:48;;;;;;;14.00;5.03;;;;;;;8.24;100.00;96732.19;5074337;28;20035;-83
2024/01/04 02:29:13;;;;;;;7.03;3.60;;;;;;;8.13;100.00;96751.53;5072820;28;20036;-82
2024/01/04 02:31:39;;;;;;;9.75;4.38;;;;;;;7.98;100.00;96746.34;5075820;28;20456;-83
2024/01/04 02:34:04;;;;;;;10.00;4.30;;;;;;;7.85;100.00;96734.75;5089970;28;20115;-83
2024/01/04 02:36:31;;;;;;;8.50;4.07;;;;;;;7.75;100.00;96734.53;5075965;28;20038;-82
2024/01/04 02:38:58;;;;;;;6.53;2.90;;;;;;;7.70;100.00;96731.28;5094221;28;20096;-84
2024/01/04 02:41:24;;;;;;;7.90;3.70;;;;;;;7.51;100.00;96723.59;5079464;28;20071;-83
2024/01/04 02:43:50;;;;;;;10.98;4.25;;;;;;;7.48;100.00;96737.09;5077830;28;20499;-82
2024/01/04 02:46:16;;;;;;;8.27;3.80;;;;;;;7.34;100.00;96731.81;5095875;28;20069;-84
2024/01/04 02:48:41;;;;;;;10.32;4.30;;;;;;;7.23;100.00;96714.81;5093178;28;20064;-83
2024/01/04 02:51:08;;;;;;;9.65;3.75;;;;;;;7.17;100.00;96710.69;5076504;28;20042;-84
2024/01/04 02:53:33;;;;;;;6.13;3.50;;;;;;;7.13;100.00;96697.72;5079301;28;20020;-83
2024/01/04 02:55:59;;;;;;;6.90;3.75;;;;;;;7.20;100.00;96704.38;5076783;28;20419;-83
2024/01/04 02:58:26;;;;;;;24.20;8.85;;;;;;;7.13;100.00;96709.19;5076161;28;20039;-82
2024/01/04 03:00:51;;;;;;;17.15;6.60;;;;;;;7.06;100.00;96702.53;5079318;28;20724;-83
2024/01/04 03:03:17;;;;;;;17.63;7.00;;;;;;;7.19;100.00;96699.97;5077162;28;20114;-83
2024/01/04 03:05:42;;;;;;;12.85;6.28;;;;;;;7.33;100.00;96705.28;5075728;28;20051;-82
2024/01/04 03:08:08;;;;;;;11.50;5.72;;;;;;;7.37;100.00;96696.16;5078238;28;20065;-83
2024/01/04 03:10:35;;;;;;;16.33;7.25;;;;;;;7.39;100.00;96695.13;5075649;28;20196;-83
2024/01/04 03:13:00;;;;;;;26.38;10.18;;;;;;;7.45;100.00;96700.06;5079174;28;20016;-83
2024/01/04 03:15:26;;;;;;;29.65;13.18;;;;;;;7.48;100.00;96693.69;5075819;28;20762;-83
2024/01/04 03:17:55;;;;;;;11.70;5.32;;;;;;;7.61;100.00;96698.13;5092627;28;20103;-83
2024/01/04 03:20:20;;;;;;;5.95;3.15;;;;;;;7.68;100.00;96677.31;5075562;28;20503;-82
2024/01/04 03:22:46;;;;;;;11.52;4.90;;;;;;;7.64;100.00;96662.47;5078993;28;20153;-83
2024/01/04 03:25:12;;;;;;;13.85;4.30;;;;;;;7.64;100.00;96673.13;5095225;28;20118;-83
2024/01/04 03:27:38;;;;;;;8.77;3.60;;;;;;;7.77;100.00;96675.84;5095887;28;20035;-83
2024/01/04 03:30:06;;;;;;;12.15;5.22;;;;;;;7.75;100.00;96686.63;5093794;28;20030;-83
2024/01/04 03:32:31;;;;;;;16.60;6.82;;;;;;;7.74;100.00;96673.38;5075531;28;20032;-83
2024/01/04 03:34:57;;;;;;;19.88;9.60;;;;;;;7.85;100.00;96681.53;5076109;28;20027;-82
2024/01/04 03:37:22;;;;;;;115.28;34.75;;;;;;;7.90;100.00;96666.97;5076567;28;20035;-82
2024/01/04 03:39:49;;;;;;;154.20;52.10;;;;;;;7.96;100.00;96665.72;5092164;28;20078;-83
2024/01/04 03:42:15;;;;;;;55.78;19.73;;;;;;;7.98;100.00;96667.31;5095517;28;20024;-82
2024/01/04 03:44:42;;;;;;;12.18;5.00;;;;;;;7.81;100.00;96658.75;5075015;28;20023;-82
2024/01/04 03:47:11;;;;;;;9.98;4.25;;;;;;;7.71;100.00;96671.78;5076936;28;20135;-81
2024/01/04 03:49:37;;;;;;;8.10;4.35;;;;;;;7.53;100.00;96670.31;5088900;28;20475;-82
2024/01/04 03:52:02;;;;;;;6.55;3.60;;;;;;;7.36;100.00;96684.66;5076876;28;20034;-83
2024/01/04 03:54:28;;;;;;;12.88;4.97;;;;;;;7.21;100.00;96675.00;5091536;28;20454;-84
2024/01/04 03:56:54;;;;;;;12.55;6.10;;;;;;;7.14;100.00;96699.44;5078398;28;20031;-82
2024/01/04 03:59:20;;;;;;;21.20;6.63;;;;;;;6.99;100.00;96672.81;5081030;28;20031;-83
2024/01/04 04:01:46;;;;;;;14.57;5.07;;;;;;;7.04;100.00;96684.00;5095497;28;20035;-82
2024/01/04 04:04:12;;;;;;;17.73;6.18;;;;;;;7.01;100.00;96692.19;5095007;28;20058;-83
2024/01/04 04:06:38;;;;;;;23.92;9.32;;;;;;;7.00;100.00;96687.84;5080523;28;20434;-82
2024/01/04 04:09:06;;;;;;;13.52;6.13;;;;;;;7.03;100.00;96677.00;5074854;28;20035;-81
2024/01/04 04:11:32;;;;;;;24.17;8.60;;;;;;;7.02;100.00;96679.75;5091430;28;20028;-82
2024/01/04 04:13:58;;;;;;;19.05;7.25;;;;;;;6.96;100.00;96665.03;5077769;28;20030;-83
2024/01/04 04:16:23;;;;;;;24.77;8.90;;;;;;;6.98;100.00;96665.78;5095247;28;20127;-83
2024/01/04 04:36:41;;;;;;;24.52;8.98;;;;;;;7.06;100.00;96655.53;5092569;28;20047;-80
2024/01/04 04:39:08;;;;;;;24.52;9.60;;;;;;;7.11;100.00;96671.19;5076108;27;20032;-73
2024/01/04 04:41:34;;;;;;;40.70;13.57;;;;;;;7.15;100.00;96688.69;5115652;27;20031;-83
2024/01/04 04:43:59;;;;;;;19.27;6.50;;;;;;;6.95;100.00;96663.31;5097957;27;20543;-82
2024/01/04 04:46:26;;;;;;;20.65;8.20;;;;;;;6.98;100.00;96667.63;5114764;27;20027;-82
2024/01/04 04:48:56;;;;;;;9.02;3.88;;;;;;;6.78;100.00;96650.22;5097896;27;20042;-80
2024/01/04 04:51:31;;;;;;;14.60;4.97;;;;;;;6.84;100.00;96681.75;5098394;27;20451;-83
2024/01/04 04:54:03;;;;;;;9.55;4.63;;;;;;;6.63;100.00;96645.84;5115016;27;20589;-81
2024/01/04 04:56:29;;;;;;;10.80;5.63;;;;;;;6.87;100.00;96686.88;5098066;27;20103;-82
2024/01/04 04:58:54;;;;;;;12.43;5.10;;;;;;;6.88;100.00;96691.25;5097855;27;20549;-82
2024/01/04 05:01:20;;;;;;;11.35;4.90;;;;;;;6.96;100.00;96696.94;5097256;27;20410;-83
2024/01/04 05:03:46;;;;;;;15.13;5.35;;;;;;;7.04;100.00;96699.97;5097684;27;20514;-83
2024/01/04 05:09:07;;;;;;;15.55;5.68;;;;;;;7.10;100.00;96672.16;5118137;27;20402;-83
2024/01/04 05:11:39;;;;;;;15.25;7.30;;;;;;;7.16;100.00;96681.56;5097765;27;20033;-84
2024/01/04 05:14:04;;;;;;;29.92;14.05;;;;;;;7.18;100.00;96684.97;5098176;27;20027;-81
2024/01/04 05:16:30;;;;;;;33.90;15.98;;;;;;;7.29;100.00;96686.00;5098559;27;20513;-78
2024/01/04 05:19:13;;;;;;;29.83;14.95;;;;;;;7.33;100.00;96684.00;5097420;28;20030;-75
2024/01/04 05:21:48;;;;;;;43.08;19.58;;;;;;;7.44;100.00;96685.06;5096165;27;20027;-84
2024/01/04 05:24:14;;;;;;;47.90;18.88;;;;;;;7.45;100.00;96688.53;5098570;27;20210;-84
2024/01/04 05:26:48;;;;;;;27.33;11.82;;;;;;;7.37;100.00;96675.75;5094888;27;20063;-72
2024/01/04 05:29:19;;;;;;;38.53;16.70;;;;;;;7.46;100.00;96696.44;5087549;27;20066;-84
2024/01/04 05:38:28;;;;;;;28.20;10.60;;;;;;;7.58;100.00;96708.97;5092138;28;20513;-83
2024/01/04 05:40:53;;;;;;;102.93;48.58;;;;;;;7.65;100.00;96712.09;5057605;28;20140;-83
2024/01/04 05:43:19;;;;;;;28.70;11.55;;;;;;;7.69;100.00;96704.78;5054621;28;20044;-82
2024/01/04 05:45:47;;;;;;;33.50;14.95;;;;;;;7.70;100.00;96703.81;5053630;28;20122;-86
2024/01/04 05:48:12;;;;;;;52.25;19.20;;;;;;;7.78;100.00;96704.19;5054507;28;20145;-81
2024/01/04 05:50:38;;;;;;;51.47;22.85;;;;;;;7.75;100.00;96685.75;5057376;28;20495;-85
2024/01/04 05:53:06;;;;;;;58.03;24.63;;;;;;;7.68;100.00;96664.00;5037256;28;20033;-83
2024/01/04 05:55:32;;;;;;;63.33;29.63;;;;;;;7.77;100.00;96676.72;5037889;28;20087;-84
2024/01/04 05:57:58;;;;;;;59.58;29.33;;;;;;;7.72;100.00;96676.13;5053602;28;20118;-85
2024/01/04 06:00:44;;;;;;;105.88;43.75;;;;;;;7.73;100.00;96677.84;5053631;28;20041;-83
2024/01/04 06:03:16;;;;;;;114.65;47.83;;;;;;;7.88;100.00;96694.63;5054279;28;20503;-85
2024/01/04 06:05:41;;;;;;;121.70;47.60;;;;;;;7.86;100.00;96678.78;5054776;28;20048;-83
2024/01/04 06:08:15;;;;;;;112.00;46.28;;;;;;;7.99;100.00;96693.00;5053865;28;20485;-83
2024/01/04 06:10:44;;;;;;;116.45;47.13;;;;;;;8.03;100.00;96680.31;5053912;28;20020;-82
2024/01/04 06:13:18;;;;;;;114.03;44.90;;;;;;;8.08;100.00;96678.22;5053587;28;20403;-84
2024/01/04 06:15:45;;;;;;;123.95;48.72;;;;;;;8.14;100.00;96696.47;5041353;28;20411;-85
2024/01/04 06:18:38;;;;;;;108.32;45.90;;;;;;;8.16;100.00;96679.41;5041255;28;20081;-85
2024/01/04 06:21:05;;;;;;;118.07;51.00;;;;;;;8.26;100.00;96695.66;5061001;28;20041;-82
2024/01/04 06:23:31;;;;;;;121.63;48.90;;;;;;;8.28;100.00;96688.44;5057648;28;20040;-84
2024/01/04 06:25:57;;;;;;;125.78;49.15;;;;;;;8.34;100.00;96693.34;5061758;28;20036;-85
2024/01/04 06:28:24;;;;;;;123.53;49.38;;;;;;;8.44;100.00;96701.59;5057483;28;20028;-84
2024/01/04 06:30:49;;;;;;;140.57;54.50;;;;;;;8.37;100.00;96702.94;5060768;28;20029;-85
2024/01/04 06:33:16;;;;;;;154.30;61.15;;;;;;;8.42;100.00;96715.03;5040396;28;20455;-85
2024/01/04 06:35:42;;;;;;;140.65;56.17;;;;;;;8.45;100.00;96713.97;5040747;28;20036;-84
2024/01/04 06:38:08;;;;;;;147.75;59.80;;;;;;;8.45;100.00;96704.16;5057308;28;20032;-85
2024/01/04 06:40:35;;;;;;;182.60;72.50;;;;;;;8.51;100.00;96703.75;5049885;28;20048;-84
2024/01/04 06:43:03;;;;;;;118.20;48.75;;;;;;;8.56;100.00;96700.75;5040464;28;20067;-85
2024/01/04 06:45:29;;;;;;;218.38;101.65;;;;;;;8.57;100.00;96702.47;5041959;28;20079;-85
2024/01/04 06:47:55;;;;;;;205.18;77.30;;;;;;;8.50;100.00;96687.84;5057577;28;20027;-85
2024/01/04 06:50:21;;;;;;;197.63;74.53;;;;;;;8.62;100.00;96684.34;5057696;28;20063;-85
2024/01/04 06:52:47;;;;;;;223.40;87.30;;;;;;;8.73;100.00;96687.16;5040876;28;20028;-85
2024/01/04 06:55:13;;;;;;;191.43;71.82;;;;;;;8.82;100.00;96699.84;5058091;28;20032;-84
2024/01/04 06:57:39;;;;;;;218.40;76.78;;;;;;;8.77;100.00;96679.81;5041378;28;20029;-84
2024/01/04 07:00:07;;;;;;;221.35;73.93;;;;;;;8.84;100.00;96689.94;5061953;28;20028;-85
2024/01/04 07:02:36;;;;;;;203.32;72.40;;;;;;;8.87;100.00;96710.19;5045811;28;20037;-84
2024/01/04 07:05:10;;;;;;;160.35;56.08;;;;;;;8.78;100.00;96690.34;5044135;28;20029;-86
2024/01/04 07:07:36;;;;;;;172.68;60.47;;;;;;;8.93;100.00;96680.44;5042453;28;20048;-85
2024/01/04 07:10:04;;;;;;;165.70;58.83;;;;;;;8.98;100.00;96664.97;5066776;28;20031;-85
2024/01/04 07:12:29;;;;;;;176.75;61.92;;;;;;;9.21;100.00;96673.06;5060097;28;20127;-86
2024/01/04 07:14:55;;;;;;;148.48;54.45;;;;;;;9.41;100.00;96686.81;5060567;28;20060;-84
2024/01/04 07:17:23;;;;;;;151.20;55.70;;;;;;;9.51;100.00;96670.03;5080065;28;20047;-86
2024/01/04 07:19:49;;;;;;;113.18;48.42;;;;;;;10.00;100.00;96661.97;5096874;28;20020;-85
2024/01/04 07:22:19;;;;;;;92.65;37.03;;;;;;;10.66;100.00;96666.78;5094415;28;20407;-85
2024/01/04 07:24:45;;;;;;;117.13;48.00;;;;;;;10.92;100.00;96666.63;5095557;28;20035;-86
2024/01/04 07:27:11;;;;;;;132.32;55.30;;;;;;;11.09;100.00;96658.97;5094088;28;20024;-86
2024/01/04 07:29:37;;;;;;;120.35;46.83;;;;;;;11.00;100.00;96638.28;5077143;28;20106;-86
2024/01/04 07:32:03;;;;;;;118.53;45.63;;;;;;;10.75;100.00;96638.47;5093274;28;20424;-85
2024/01/04 07:34:33;;;;;;;129.55;50.70;;;;;;;10.46;100.00;96654.06;5060639;28;20104;-86
2024/01/04 07:36:59;;;;;;;118.93;48.42;;;;;;;10.32;100.00;96630.22;5093704;28;20024;-86
2024/01/04 07:39:26;;;;;;;121.13;49.13;;;;;;;10.53;100.00;96633.06;5093640;28;20633;-85
2024/01/04 07:41:52;;;;;;;178.32;84.97;;;;;;;10.75;100.00;96617.94;5059915;28;20093;-87
2024/01/04 07:44:18;;;;;;;111.95;48.30;;;;;;;11.08;100.00;96613.56;5060246;28;20128;-87
2024/01/04 07:46:44;;;;;;;149.15;58.95;;;;;;;11.45;100.00;96625.75;5060271;28;20028;-86
2024/01/04 07:49:10;;;;;;;127.85;50.85;;;;;;;12.01;100.00;96614.97;5093228;28;20024;-85
2024/01/04 07:51:37;;;;;;;118.45;46.78;;;;;;;11.84;100.00;96597.59;5059713;28;20032;-85
2024/01/04 07:54:02;;;;;;;124.57;45.80;;;;;;;11.72;100.00;96594.06;5060007;28;20028;-88
2024/01/04 07:56:28;;;;;;;128.65;53.67;;;;;;;11.39;100.00;96618.22;5059914;28;20024;-87
2024/01/04 07:58:53;;;;;;;120.80;51.53;;;;;;;11.19;100.00;96627.84;5060388;28;20093;-87
2024/01/04 08:01:19;;;;;;;117.88;54.40;;;;;;;11.15;100.00;96650.47;5059961;28;20476;-86
2024/01/04 08:03:47;;;;;;;98.60;41.83;;;;;;;10.96;100.00;96607.38;5059811;28;20085;-86
2024/01/04 08:06:13;;;;;;;118.18;51.28;;;;;;;10.81;100.00;96627.31;5059703;28;20106;-87
2024/01/04 08:08:39;;;;;;;89.63;41.42;;;;;;;10.96;100.00;96626.09;5060271;28;20028;-85
2024/01/04 08:11:04;;;;;;;70.20;28.77;;;;;;;10.89;100.00;96624.88;5060607;28;20034;-86
2024/01/04 08:13:30;;;;;;;78.88;33.33;;;;;;;10.87;100.00;96606.28;5061594;28;20403;-85
2024/01/04 08:15:56;;;;;;;66.28;26.73;;;;;;;10.84;100.00;96605.66;5060736;28;20483;-84
2024/01/04 08:18:21;;;;;;;42.97;18.33;;;;;;;10.80;100.00;96609.53;5062058;28;20063;-86
2024/01/04 08:20:48;;;;;;;53.75;25.60;;;;;;;10.97;100.00;96611.75;5060084;28;20487;-86
2024/01/04 08:23:13;;;;;;;61.70;24.83;;;;;;;11.23;100.00;96602.50;5093877;28;20107;-86
2024/01/04 08:25:39;;;;;;;61.97;31.48;;;;;;;11.38;100.00;96603.13;5062825;28;20047;-87
2024/01/04 08:28:06;;;;;;;65.75;33.88;;;;;;;12.01;100.00;96593.50;5062276;28;20028;-87
2024/01/04 08:30:31;;;;;;;72.72;34.03;;;;;;;12.38;100.00;96598.38;5096828;28;20043;-84
2024/01/04 08:32:57;;;;;;;43.45;19.95;;;;;;;12.79;100.00;96608.25;5060390;28;20077;-86
2024/01/04 08:35:23;;;;;;;59.33;26.98;;;;;;;12.72;100.00;96600.84;5094711;28;20376;-85
2024/01/04 08:37:49;;;;;;;54.55;28.17;;;;;;;12.93;100.00;96582.91;5060744;28;20085;-86
2024/01/04 08:40:15;;;;;;;64.30;29.83;;;;;;;12.92;100.00;96581.22;5052345;28;20049;-87
2024/01/04 08:42:41;;;;;;;60.10;29.27;;;;;;;13.09;100.00;96569.88;5042844;28;20028;-85
2024/01/04 08:45:08;;;;;;;64.18;28.92;;;;;;;13.23;100.00;96576.72;5049205;28;20120;-87
2024/01/04 08:47:35;;;;;;;55.28;26.02;;;;;;;13.29;100.00;96585.06;5053548;28;20484;-86
2024/01/04 08:50:00;;;;;;;102.97;40.80;;;;;;;13.21;100.00;96533.91;5048464;28;20051;-85
2024/01/04 08:52:29;;;;;;;93.40;38.05;;;;;;;13.50;100.00;96528.63;5039347;28;20113;-85
2024/01/04 08:54:55;;;;;;;63.33;29.35;;;;;;;14.85;100.00;96516.00;5039079;28;20042;-85
2024/01/04 08:57:22;;;;;;;;;;;;;;;16.53;98.56;96500.00;5056259;28;20480;-86
2024/01/04 08:59:48;;;;;;;;;;;;;;;17.81;82.00;96509.84;5072498;28;19915;-85
2024/01/04 09:02:14;;;;;;;78.00;29.30;;;;;;;17.57;82.64;96498.97;5071928;28;20003;-84
2024/01/04 09:04:39;;;;;;;56.50;24.75;;;;;;;17.80;79.32;96500.06;5038176;28;20035;-86
2024/01/04 09:07:08;;;;;;;47.95;22.92;;;;;;;17.42;80.05;96497.00;5039042;28;20483;-85
2024/01/04 09:09:37;;;;;;;47.80;19.90;;;;;;;16.61;90.06;96519.00;5038379;28;20102;-85
2024/01/04 09:12:03;;;;;;;48.75;20.63;;;;;;;16.36;96.55;96500.06;5055351;28;20028;-86
2024/01/04 09:14:30;;;;;;;45.38;21.13;;;;;;;16.90;93.11;96507.03;5055347;28;20032;-86
2024/01/04 09:16:55;;;;;;;37.20;18.08;;;;;;;16.94;86.09;96493.06;5038410;28;20109;-85
2024/01/04 09:19:21;;;;;;;16.88;7.65;;;;;;;16.90;73.20;96463.81;5037809;28;20032;-84
2024/01/04 09:21:49;;;;;;;6.28;3.80;;;;;;;16.55;67.49;96454.84;5055817;28;20032;-84
2024/01/04 09:24:20;;;;;;;6.63;2.90;;;;;;;16.42;67.18;96461.63;5039473;28;20055;-85
2024/01/04 09:26:46;;;;;;;5.05;2.50;;;;;;;16.00;68.72;96447.97;5056064;28;20029;-84
2024/01/04 09:29:13;;;;;;;6.20;2.92;;;;;;;15.80;72.91;96454.53;5039015;28;20115;-85
2024/01/04 09:31:48;;;;;;;4.88;2.30;;;;;;;16.49;67.88;96433.84;5055203;28;20107;-84
2024/01/04 09:34:13;;;;;;;8.48;3.63;;;;;;;17.44;62.92;96430.97;5038463;28;20023;-84
2024/01/04 09:36:41;;;;;;;8.65;3.70;;;;;;;18.79;56.60;96422.28;5038913;28;20021;-83
2024/01/04 09:39:14;;;;;;;4.07;2.20;;;;;;;19.01;54.83;96417.13;5039034;28;20021;-84
2024/01/04 09:41:44;;;;;;;;;;;;;;;19.79;53.11;96418.78;5059816;28;20085;-84
2024/01/04 09:44:11;;;;;;;3.67;2.45;;;;;;;20.59;50.22;96394.72;5091472;28;19912;-86
2024/01/04 09:46:38;;;;;;;3.00;1.70;;;;;;;21.43;47.28;96369.81;5059083;28;20050;-84
2024/01/04 09:49:05;;;;;;;4.38;2.38;;;;;;;22.17;45.66;96375.84;5059562;28;20028;-83
2024/01/04 09:51:34;;;;;;;4.25;2.10;;;;;;;22.45;45.50;96373.16;5061623;28;20100;-83
2024/01/04 09:54:04;;;;;;;7.40;2.30;;;;;;;22.78;43.93;96360.66;5079486;28;20464;-84
2024/01/04 09:56:30;;;;;;;4.60;2.70;;;;;;;23.16;43.06;96366.53;5062378;28;20103;-84
2024/01/04 09:58:56;;;;;;;3.78;2.10;;;;;;;24.17;41.41;96361.03;5078746;28;20404;-84
2024/01/04 10:01:35;;;;;;;3.67;1.60;;;;;;;25.17;38.58;96351.72;5062285;28;20039;-85
2024/01/04 10:04:08;;;;;;;;;;;;;;;25.83;37.54;96344.94;5079412;28;20045;-83
2024/01/04 10:06:35;;;;;;;7.15;2.20;;;;;;;25.08;38.46;96337.41;5095440;28;19911;-85
2024/01/04 10:09:22;;;;;;;3.42;1.70;;;;;;;24.22;38.97;96331.19;5062313;28;20024;-84
2024/01/04 10:11:57;;;;;;;4.97;2.00;;;;;;;23.50;41.00;96352.84;5112079;28;20031;-84
2024/01/04 10:14:27;;;;;;;2.03;1.60;;;;;;;23.12;40.85;96325.19;5112357;28;20036;-85
2024/01/04 10:16:56;;;;;;;2.60;1.40;;;;;;;22.62;41.25;96333.66;5079124;28;20035;-84
2024/01/04 10:19:22;;;;;;;6.38;2.03;;;;;;;23.00;41.57;96313.16;5061732;28;20183;-83
2024/01/04 10:21:48;;;;;;;7.95;2.75;;;;;;;24.20;39.85;96314.16;5080558;28;20035;-84
2024/01/04 10:24:20;;;;;;;7.05;2.13;;;;;;;23.71;40.01;96310.91;5062971;28;20031;-86
2024/01/04 10:26:54;;;;;;;3.90;1.90;;;;;;;24.37;38.96;96279.03;5061365;28;20028;-83
2024/01/04 10:29:20;;;;;;;4.95;1.45;;;;;;;24.81;37.96;96297.50;5077992;28;20487;-85
2024/01/04 10:31:46;;;;;;;4.35;1.55;;;;;;;24.85;38.29;96296.03;5060662;28;20411;-84
2024/01/04 10:34:17;;;;;;;3.08;1.30;;;;;;;25.77;36.56;96271.00;5077868;28;20024;-84
2024/01/04 10:36:42;;;;;;;4.47;1.60;;;;;;;26.55;36.12;96257.75;5060565;28;20032;-83
2024/01/04 10:39:08;;;;;;;3.90;1.30;;;;;;;27.22;34.70;96249.41;5060491;28;20499;-85
2024/01/04 10:41:34;;;;;;;5.38;1.73;;;;;;;27.17;34.59;96251.13;5061150;28;20371;-84
2024/01/04 10:44:18;;;;;;;2.38;1.10;;;;;;;27.67;33.52;96249.00;5060578;28;20024;-84
2024/01/04 10:46:43;;;;;;;2.10;1.42;;;;;;;27.54;33.73;96243.69;5060392;28;20028;-84
2024/01/04 10:49:16;;;;;;;2.78;1.52;;;;;;;27.75;33.09;96249.50;5060027;28;20028;-83
2024/01/04 10:51:44;;;;;;;2.30;1.58;;;;;;;28.03;33.61;96246.13;5060798;28;20062;-83
2024/01/04 10:54:10;;;;;;;1.95;1.35;;;;;;;28.30;32.86;96236.38;5060312;28;20495;-84
2024/01/04 10:56:36;;;;;;;3.08;1.52;;;;;;;28.57;32.68;96225.78;5061652;28;20107;-84
2024/01/04 10:59:03;;;;;;;3.03;1.65;;;;;;;28.11;32.56;96209.25;5060615;28;20028;-84
2024/01/04 11:01:29;;;;;;;3.00;1.88;;;;;;;27.72;33.21;96205.16;5060091;28;20032;-83
2024/01/04 11:03:55;;;;;;;3.17;1.10;;;;;;;26.98;32.89;96198.13;5060492;28;20024;-83
2024/01/04 11:06:33;;;;;;;2.67;1.80;;;;;;;27.37;33.57;96197.63;5060022;28;20032;-83
2024/01/04 11:08:59;;;;;;;3.17;1.20;;;;;;;27.15;33.31;96203.84;5061153;28;20028;-83
2024/01/04 11:11:25;;;;;;;4.00;0.82;;;;;;;27.76;32.69;96193.47;5059306;28;20035;-83
2024/01/04 11:13:51;;;;;;;1.20;1.10;;;;;;;27.13;32.92;96193.13;5076348;28;20034;-82
2024/01/04 11:16:34;;;;;;;4.70;1.20;;;;;;;27.27;32.99;96182.78;5059342;28;20036;-83
2024/01/04 11:19:18;;;;;;;4.50;1.38;;;;;;;27.94;31.97;96173.31;5110179;28;20458;-82
2024/01/04 11:21:55;;;;;;;2.58;1.60;;;;;;;28.78;31.40;96161.88;5093962;28;20031;-84
2024/01/04 11:24:50;;;;;;;3.40;1.90;;;;;;;29.30;30.35;96159.09;5109927;28;20034;-82
2024/01/04 11:27:17;;;;;;;2.33;1.40;;;;;;;28.49;30.61;96141.66;5058124;28;20032;-83
2024/01/04 11:29:44;;;;;;;2.70;1.55;;;;;;;28.30;31.16;96145.59;5059715;28;20089;-83
2024/01/04 11:32:10;;;;;;;1.60;0.95;;;;;;;28.40;30.88;96142.25;5059110;28;20023;-83
2024/01/04 11:34:39;;;;;;;2.90;1.17;;;;;;;27.84;31.31;96159.34;5069492;28;20112;-84
2024/01/04 11:37:21;;;;;;;1.63;1.20;;;;;;;27.40;32.25;96147.72;5079793;28;20073;-83
2024/01/04 11:39:53;;;;;;;3.72;1.48;;;;;;;27.04;32.51;96163.47;5089437;28;20477;-81
2024/01/04 11:42:19;;;;;;;4.10;2.20;;;;;;;26.97;32.54;96129.75;5093913;28;20076;-83
2024/01/04 11:44:49;;;;;;;1.60;1.20;;;;;;;27.00;31.98;96152.09;5059588;28;20031;-84
2024/01/04 11:47:15;;;;;;;2.60;0.85;;;;;;;25.38;33.44;96150.72;5075632;28;20422;-82
2024/01/04 11:49:47;;;;;;;2.22;1.20;;;;;;;24.99;34.39;96147.16;5075336;28;20111;-83
2024/01/04 11:52:15;;;;;;;3.50;1.40;;;;;;;24.92;34.88;96146.34;5092277;28;20031;-83
2024/01/04 11:54:41;;;;;;;0.95;0.65;;;;;;;24.94;34.13;96144.25;5075218;28;20145;-84